createdAt,value
2019-01-29T00:03:49.474Z,1.00
2019-01-29T00:08:52.798Z,1.00
2019-01-29T00:13:56.261Z,0.90
2019-01-29T00:19:01.227Z,0.80
2019-01-29T00:24:04.224Z,0.90
2019-01-29T00:29:11.038Z,0.90
2019-01-29T00:34:14.366Z,0.90
2019-01-29T00:39:17.925Z,0.80
2019-01-29T00:44:26.239Z,0.90
2019-01-29T00:49:35.131Z,1.00
2019-01-29T00:54:38.508Z,1.00
2019-01-29T00:59:41.885Z,1.00
2019-01-29T01:04:48.506Z,1.10
2019-01-29T01:09:57.258Z,1.10
2019-01-29T01:14:59.988Z,1.10
2019-01-29T01:20:04.424Z,1.20
2019-01-29T01:25:11.450Z,1.10
2019-01-29T01:30:16.480Z,1.20
2019-01-29T01:35:19.877Z,1.20
2019-01-29T01:40:24.011Z,1.30
2019-01-29T01:45:35.828Z,1.20
2019-01-29T01:50:39.130Z,1.10
2019-01-29T01:55:48.747Z,1.20
2019-01-29T02:00:52.086Z,1.20
2019-01-29T02:05:58.179Z,1.20
2019-01-29T02:11:01.748Z,1.10
2019-01-29T02:16:05.200Z,1.00
2019-01-29T02:21:08.521Z,0.80
2019-01-29T02:26:19.358Z,0.80
2019-01-29T02:31:25.848Z,0.70
2019-01-29T02:36:29.113Z,0.80
2019-01-29T02:41:32.404Z,0.80
2019-01-29T02:46:35.982Z,0.80
2019-01-29T02:51:39.519Z,0.80
2019-01-29T02:56:42.841Z,0.70
2019-01-29T03:01:46.326Z,0.70
2019-01-29T03:06:49.853Z,0.70
2019-01-29T03:11:53.357Z,0.70
2019-01-29T03:16:56.769Z,0.60
2019-01-29T03:22:03.555Z,0.60
2019-01-29T03:27:06.802Z,0.70
2019-01-29T03:32:10.281Z,0.70
2019-01-29T03:37:13.717Z,0.80
2019-01-29T03:42:17.441Z,1.00
2019-01-29T03:47:20.925Z,1.00
2019-01-29T03:52:24.274Z,1.00
2019-01-29T03:57:27.577Z,1.00
2019-01-29T04:02:30.912Z,1.00
2019-01-29T04:07:46.159Z,1.20
2019-01-29T04:12:49.417Z,1.10
2019-01-29T04:17:57.658Z,1.10
2019-01-29T04:23:01.201Z,1.20
2019-01-29T04:28:04.668Z,1.30
2019-01-29T04:33:12.844Z,1.30
2019-01-29T04:38:16.351Z,1.20
2019-01-29T04:43:19.803Z,1.20
2019-01-29T04:48:23.050Z,1.20
2019-01-29T04:53:26.335Z,1.30
2019-01-29T04:58:29.699Z,1.30
2019-01-29T05:03:36.183Z,1.30
2019-01-29T05:08:39.521Z,1.30
2019-01-29T05:13:42.753Z,1.30
2019-01-29T05:18:46.042Z,1.40
2019-01-29T05:23:49.355Z,1.40
2019-01-29T05:28:55.863Z,1.40
2019-01-29T05:33:59.172Z,1.50
2019-01-29T05:39:04.578Z,1.40
2019-01-29T05:44:11.167Z,1.40
2019-01-29T05:49:14.536Z,1.50
2019-01-29T05:54:28.506Z,1.50
2019-01-29T05:59:31.668Z,1.50
2019-01-29T06:04:36.486Z,1.60
2019-01-29T06:09:39.799Z,1.70
2019-01-29T06:14:46.423Z,1.70
2019-01-29T06:19:51.716Z,1.70
2019-01-29T06:24:55.232Z,1.70
2019-01-29T06:29:58.615Z,1.50
2019-01-29T06:35:02.190Z,1.50
2019-01-29T06:40:06.255Z,1.40
2019-01-29T06:45:11.567Z,1.30
2019-01-29T06:50:16.616Z,1.20
2019-01-29T06:55:20.764Z,1.20
2019-01-29T07:00:28.856Z,1.20
2019-01-29T07:05:32.274Z,1.20
2019-01-29T07:10:41.378Z,1.20
2019-01-29T07:16:07.482Z,1.20
2019-01-29T07:21:11.201Z,1.30
2019-01-29T07:26:14.713Z,1.30
2019-01-29T07:31:18.049Z,1.40
2019-01-29T07:36:21.473Z,1.50
2019-01-29T07:41:24.792Z,1.60
2019-01-29T07:46:28.367Z,1.60
2019-01-29T07:51:33.550Z,1.60
2019-01-29T07:56:38.365Z,1.50
2019-01-29T08:01:41.812Z,1.60
2019-01-29T08:06:45.299Z,1.60
2019-01-29T08:11:48.633Z,1.70
2019-01-29T08:16:55.026Z,1.70
2019-01-29T08:21:58.324Z,1.80
2019-01-29T08:27:01.720Z,1.80
2019-01-29T08:32:05.110Z,1.80
2019-01-29T08:37:11.536Z,1.90
2019-01-29T08:42:14.942Z,1.90
2019-01-29T08:47:20.127Z,2.00
2019-01-29T08:52:23.423Z,2.00
2019-01-29T08:57:26.640Z,2.00
2019-01-29T09:02:33.049Z,2.00
2019-01-29T09:07:36.335Z,2.00
2019-01-29T09:12:39.797Z,2.20
2019-01-29T09:17:43.324Z,2.20
2019-01-29T09:22:48.467Z,2.20
2019-01-29T09:27:51.825Z,2.10
2019-01-29T09:32:55.143Z,2.00
2019-01-29T09:38:04.649Z,2.00
2019-01-29T09:43:08.156Z,2.20
2019-01-29T09:48:14.574Z,2.30
2019-01-29T09:53:17.784Z,2.40
2019-01-29T09:58:26.799Z,2.30
2019-01-29T10:03:29.954Z,2.30
2019-01-29T10:08:33.415Z,2.20
2019-01-29T10:13:42.971Z,2.30
2019-01-29T10:18:46.222Z,2.30
2019-01-29T10:23:49.613Z,2.50
2019-01-29T10:28:52.935Z,2.40
2019-01-29T10:33:59.301Z,2.40
2019-01-29T10:39:04.435Z,3.10
2019-01-29T10:44:07.787Z,3.80
2019-01-29T10:49:11.364Z,3.70
2019-01-29T10:54:16.841Z,3.80
2019-01-29T10:59:20.547Z,3.50
2019-01-29T11:04:23.889Z,3.80
2019-01-29T11:09:27.480Z,4.50
2019-01-29T11:14:32.923Z,4.90
2019-01-29T11:19:37.848Z,4.90
2019-01-29T11:24:45.112Z,4.80
2019-01-29T11:29:51.986Z,4.60
2019-01-29T11:34:59.085Z,4.70
2019-01-29T11:40:19.088Z,4.90
2019-01-29T11:45:42.716Z,4.90
2019-01-29T11:50:47.682Z,4.70
2019-01-29T11:55:51.033Z,4.70
2019-01-29T12:01:04.654Z,4.80
2019-01-29T12:06:08.165Z,4.70
2019-01-29T12:11:11.554Z,4.40
2019-01-29T12:16:14.950Z,4.30
2019-01-29T12:21:18.417Z,5.00
2019-01-29T12:26:21.868Z,5.10
2019-01-29T12:31:25.317Z,4.80
2019-01-29T12:36:31.679Z,4.40
2019-01-29T12:41:34.968Z,4.40
2019-01-29T12:46:38.309Z,4.10
2019-01-29T12:52:15.465Z,3.80
2019-01-29T12:57:18.719Z,3.80
2019-01-29T13:02:22.110Z,3.90
2019-01-29T13:07:25.450Z,3.70
2019-01-29T13:12:31.639Z,3.70
2019-01-29T13:17:35.199Z,3.60
2019-01-29T13:22:40.595Z,3.50
2019-01-29T13:27:44.082Z,3.60
2019-01-29T13:32:50.653Z,3.60
2019-01-29T13:37:54.176Z,3.90
2019-01-29T13:42:57.528Z,3.70
2019-01-29T13:48:06.307Z,3.60
2019-01-29T13:53:09.936Z,3.60
2019-01-29T13:58:13.095Z,3.70
2019-01-29T14:03:19.247Z,3.80
2019-01-29T14:08:22.621Z,3.70
2019-01-29T14:13:25.871Z,3.60
2019-01-29T14:18:32.326Z,3.50
2019-01-29T14:23:35.761Z,3.50
2019-01-29T14:28:43.101Z,3.40
2019-01-29T14:33:46.593Z,3.30
2019-01-29T14:39:28.783Z,3.30
2019-01-29T14:44:37.243Z,3.30
2019-01-29T14:49:40.621Z,3.40
2019-01-29T14:54:47.243Z,3.30
2019-01-29T14:59:50.662Z,3.20
2019-01-29T15:04:54.138Z,3.30
2019-01-29T15:09:57.694Z,3.40
2019-01-29T15:15:00.922Z,3.40
2019-01-29T15:20:05.841Z,3.40
2019-01-29T15:25:10.513Z,3.50
2019-01-29T15:30:24.689Z,3.30
2019-01-29T15:35:31.003Z,3.30
2019-01-29T15:40:40.112Z,3.00
2019-01-29T15:45:43.714Z,3.00
2019-01-29T15:50:49.972Z,3.00
2019-01-29T15:55:53.453Z,2.90
2019-01-29T16:01:00.041Z,2.80
2019-01-29T16:06:04.232Z,2.70
2019-01-29T16:11:07.685Z,2.50
2019-01-29T16:16:17.142Z,2.60
2019-01-29T16:21:20.759Z,2.40
2019-01-29T16:26:24.375Z,2.40
2019-01-29T16:31:27.725Z,2.40
2019-01-29T16:36:34.067Z,2.40
2019-01-29T16:41:39.227Z,2.30
2019-01-29T16:46:45.765Z,2.30
2019-01-29T16:51:49.172Z,2.30
2019-01-29T16:56:52.534Z,2.40
2019-01-29T17:01:55.798Z,2.30
2019-01-29T17:06:59.115Z,2.10
2019-01-29T17:12:04.081Z,2.00
2019-01-29T17:17:07.371Z,1.90
2019-01-29T17:22:10.709Z,1.90
2019-01-29T17:27:15.323Z,1.90
2019-01-29T17:32:18.146Z,1.80
2019-01-29T17:37:23.589Z,1.80
2019-01-29T17:42:26.791Z,1.80
2019-01-29T17:47:30.073Z,1.70
2019-01-29T17:52:33.308Z,1.70
2019-01-29T17:57:39.325Z,1.60
2019-01-29T18:02:42.837Z,1.50
2019-01-29T18:07:46.351Z,1.50
2019-01-29T18:12:50.193Z,1.40
2019-01-29T18:17:58.539Z,1.40
2019-01-29T18:23:01.463Z,1.30
2019-01-29T18:28:05.437Z,1.20
2019-01-29T18:33:09.151Z,1.10
2019-01-29T18:38:12.569Z,1.30
2019-01-29T18:43:16.078Z,1.30
2019-01-29T18:48:19.654Z,1.20
2019-01-29T18:53:22.839Z,1.10
2019-01-29T18:58:26.423Z,1.10
2019-01-29T19:03:29.791Z,1.20
2019-01-29T19:08:36.171Z,1.30
2019-01-29T19:13:42.480Z,1.60
2019-01-29T19:18:46.070Z,1.50
2019-01-29T19:23:49.555Z,1.40
2019-01-29T19:28:58.595Z,1.40
2019-01-29T19:34:02.189Z,1.30
2019-01-29T19:39:08.940Z,1.30
2019-01-29T19:44:12.330Z,1.20
2019-01-29T19:49:19.184Z,1.30
2019-01-29T19:54:25.197Z,1.40
2019-01-29T19:59:28.603Z,1.30
2019-01-29T20:04:31.999Z,1.20
2019-01-29T20:09:35.353Z,1.10
2019-01-29T20:14:38.949Z,1.10
2019-01-29T20:19:42.466Z,1.10
2019-01-29T20:24:45.939Z,1.30
2019-01-29T20:29:49.350Z,1.20
2019-01-29T20:34:52.870Z,1.30
2019-01-29T20:40:02.427Z,1.40
2019-01-29T20:45:06.964Z,1.40
2019-01-29T20:50:16.095Z,1.00
2019-01-29T20:55:19.523Z,1.10
2019-01-29T21:00:25.332Z,1.00
2019-01-29T21:05:28.761Z,1.10
2019-01-29T21:10:32.319Z,1.10
2019-01-29T21:15:38.563Z,0.90
2019-01-29T21:20:40.777Z,1.10
2019-01-29T21:25:44.506Z,0.90
2019-01-29T21:30:51.981Z,1.00
2019-01-29T21:35:58.331Z,1.00
2019-01-29T21:41:04.883Z,0.90
2019-01-29T21:46:08.147Z,0.90
2019-01-29T21:51:11.723Z,0.90
2019-01-29T21:56:15.223Z,1.00
2019-01-29T22:01:18.552Z,1.00
2019-01-29T22:06:21.843Z,0.80
2019-01-29T22:11:30.430Z,0.90
2019-01-29T22:16:33.789Z,0.80
2019-01-29T22:21:38.337Z,0.80
2019-01-29T22:26:41.745Z,0.70
2019-01-29T22:31:45.253Z,0.80
2019-01-29T22:36:51.534Z,0.90
2019-01-29T22:41:55.051Z,1.10
2019-01-29T22:46:58.345Z,0.80
2019-01-29T22:52:07.842Z,0.60
2019-01-29T22:57:14.321Z,0.80
2019-01-29T23:02:17.753Z,0.90
2019-01-29T23:07:29.995Z,0.70
2019-01-29T23:12:34.981Z,0.80
2019-01-29T23:17:38.214Z,1.10
2019-01-29T23:22:41.572Z,0.80
2019-01-29T23:27:48.044Z,0.90
2019-01-29T23:32:51.708Z,0.90
2019-01-29T23:37:55.326Z,0.70
2019-01-29T23:42:59.154Z,0.90
2019-01-29T23:48:02.670Z,0.80
2019-01-29T23:53:05.918Z,0.70
2019-01-29T23:58:12.324Z,0.60
